createdAt,value
2019-06-10T00:01:21.431Z,4.12
2019-06-10T00:03:53.738Z,3.08
2019-06-10T00:06:26.176Z,3.17
2019-06-10T00:09:15.255Z,3.05
2019-06-10T00:11:48.140Z,3.62
2019-06-10T00:14:17.789Z,2.52
2019-06-10T00:16:50.825Z,2.35
2019-06-10T00:19:23.229Z,2.25
2019-06-10T00:21:52.684Z,2.47
2019-06-10T00:24:22.227Z,3.10
2019-06-10T00:26:51.908Z,2.33
2019-06-10T00:29:22.236Z,2.35
2019-06-10T00:31:54.938Z,2.77
2019-06-10T00:34:24.442Z,1.92
2019-06-10T00:36:56.889Z,3.30
2019-06-10T00:39:31.165Z,4.53
2019-06-10T00:42:03.170Z,1.70
2019-06-10T00:44:31.272Z,2.00
2019-06-10T00:47:06.680Z,3.02
2019-06-10T00:49:40.798Z,3.67
2019-06-10T00:52:12.178Z,2.42
2019-06-10T00:54:44.251Z,2.33
2019-06-10T00:57:13.880Z,1.87
2019-06-10T00:59:43.266Z,1.87
2019-06-10T01:02:16.043Z,2.00
2019-06-10T01:04:45.708Z,2.60
2019-06-10T01:07:18.181Z,2.35
2019-06-10T01:10:08.889Z,2.12
2019-06-10T01:12:40.894Z,3.77
2019-06-10T01:15:12.563Z,3.10
2019-06-10T01:17:41.781Z,1.02
2019-06-10T01:20:17.243Z,2.17
2019-06-10T01:22:47.212Z,2.42
2019-06-10T01:25:21.672Z,1.72
2019-06-10T01:27:51.565Z,2.15
2019-06-10T01:30:26.431Z,1.57
2019-06-10T01:32:52.397Z,1.95
2019-06-10T01:35:24.570Z,2.52
2019-06-10T01:37:53.994Z,1.65
2019-06-10T01:40:23.889Z,2.02
2019-06-10T01:42:56.998Z,1.85
2019-06-10T01:45:26.247Z,1.87
2019-06-10T01:47:58.487Z,2.42
2019-06-10T01:50:27.988Z,1.67
2019-06-10T01:53:00.579Z,1.50
2019-06-10T01:55:31.188Z,1.62
2019-06-10T01:58:00.882Z,2.60
2019-06-10T02:00:47.380Z,1.35
2019-06-10T02:03:25.850Z,1.10
2019-06-10T02:05:53.688Z,2.90
2019-06-10T02:08:34.904Z,1.72
2019-06-10T02:11:04.452Z,2.37
2019-06-10T02:13:35.939Z,2.92
2019-06-10T02:16:14.154Z,1.87
2019-06-10T02:18:56.514Z,1.60
2019-06-10T02:21:18.291Z,2.50
2019-06-10T02:23:52.023Z,2.77
2019-06-10T02:26:24.863Z,3.27
2019-06-10T02:28:55.528Z,1.82
2019-06-10T02:31:30.553Z,1.32
2019-06-10T02:34:05.086Z,1.35
2019-06-10T02:36:38.011Z,2.60
2019-06-10T02:39:09.258Z,1.77
2019-06-10T02:41:44.603Z,1.85
2019-06-10T02:44:17.318Z,3.10
2019-06-10T02:46:44.383Z,2.08
2019-06-10T02:49:33.074Z,1.45
2019-06-10T02:51:44.298Z,1.32
2019-06-10T02:54:16.167Z,2.05
2019-06-10T02:56:44.516Z,1.45
2019-06-10T02:59:13.542Z,1.50
2019-06-10T03:01:43.986Z,1.50
2019-06-10T03:04:13.814Z,1.92
2019-06-10T03:06:44.918Z,1.60
2019-06-10T03:09:14.334Z,1.90
2019-06-10T03:11:44.955Z,2.00
2019-06-10T03:14:14.044Z,2.05
2019-06-10T03:16:47.008Z,2.47
2019-06-10T03:19:15.889Z,1.65
2019-06-10T03:21:44.709Z,1.20
2019-06-10T03:24:13.510Z,1.27
2019-06-10T03:26:42.798Z,2.50
2019-06-10T03:29:12.864Z,2.52
2019-06-10T03:31:47.710Z,1.75
2019-06-10T03:34:14.701Z,1.32
2019-06-10T03:36:43.072Z,1.57
2019-06-10T03:39:13.280Z,1.57
2019-06-10T03:41:42.497Z,1.15
2019-06-10T03:44:13.213Z,2.40
2019-06-10T03:46:43.141Z,1.60
2019-06-10T03:49:12.653Z,1.65
2019-06-10T03:51:42.773Z,1.50
2019-06-10T03:54:13.077Z,2.90
2019-06-10T03:56:42.967Z,1.90
2019-06-10T03:59:12.599Z,1.77
2019-06-10T04:01:42.630Z,1.75
2019-06-10T04:04:13.183Z,1.05
2019-06-10T04:06:44.243Z,1.87
2019-06-10T04:09:12.737Z,0.95
2019-06-10T04:11:43.072Z,4.35
2019-06-10T04:14:13.051Z,3.57
2019-06-10T04:16:43.374Z,2.92
2019-06-10T04:19:13.113Z,2.05
2019-06-10T04:21:43.204Z,2.45
2019-06-10T04:24:12.978Z,1.75
2019-06-10T04:26:43.502Z,2.62
2019-06-10T04:29:12.902Z,2.08
2019-06-10T04:31:42.645Z,2.85
2019-06-10T04:34:12.436Z,5.00
2019-06-10T04:36:42.376Z,2.62
2019-06-10T04:39:12.553Z,3.80
2019-06-10T04:41:42.632Z,4.17
2019-06-10T04:44:13.190Z,4.72
2019-06-10T04:46:42.742Z,3.20
2019-06-10T04:49:13.186Z,4.08
2019-06-10T04:51:43.403Z,2.40
2019-06-10T04:54:13.731Z,4.62
2019-06-10T04:56:42.959Z,3.55
2019-06-10T04:59:12.563Z,4.03
2019-06-10T05:01:42.867Z,3.95
2019-06-10T05:04:12.565Z,3.02
2019-06-10T05:06:42.252Z,3.02
2019-06-10T05:09:12.402Z,3.27
2019-06-10T05:11:43.065Z,5.87
2019-06-10T05:14:13.245Z,3.37
2019-06-10T05:16:43.053Z,3.00
2019-06-10T05:19:12.873Z,4.87
2019-06-10T05:21:42.543Z,3.60
2019-06-10T05:24:12.491Z,4.95
2019-06-10T05:26:42.638Z,3.62
2019-06-10T05:29:12.160Z,7.30
2019-06-10T05:31:43.562Z,2.70
2019-06-10T05:34:13.173Z,4.85
2019-06-10T05:36:43.696Z,3.95
2019-06-10T05:39:12.775Z,2.12
2019-06-10T05:41:43.295Z,3.90
2019-06-10T05:44:13.436Z,5.10
2019-06-10T05:46:43.490Z,3.00
2019-06-10T05:49:12.705Z,3.75
2019-06-10T05:51:42.340Z,3.42
2019-06-10T05:54:12.763Z,5.40
2019-06-10T05:56:43.314Z,4.05
2019-06-10T05:59:12.738Z,3.72
2019-06-10T06:01:43.140Z,5.42
2019-06-10T06:04:12.650Z,3.60
2019-06-10T06:06:44.974Z,5.53
2019-06-10T06:09:13.063Z,5.35
2019-06-10T06:11:43.055Z,2.60
2019-06-10T06:14:13.324Z,3.20
2019-06-10T06:16:44.210Z,4.72
2019-06-10T06:19:13.867Z,3.87
2019-06-10T06:21:47.625Z,4.28
2019-06-10T06:24:13.760Z,5.85
2019-06-10T06:26:43.411Z,3.17
2019-06-10T06:29:14.515Z,4.12
2019-06-10T06:31:43.295Z,2.87
2019-06-10T06:34:33.664Z,3.05
2019-06-10T06:37:02.311Z,7.10
2019-06-10T06:39:33.508Z,5.22
2019-06-10T06:42:02.370Z,4.92
2019-06-10T06:44:33.099Z,3.27
2019-06-10T06:47:02.821Z,4.10
2019-06-10T06:49:32.888Z,2.72
2019-06-10T06:52:03.050Z,2.67
2019-06-10T06:54:33.363Z,4.35
2019-06-10T06:57:03.531Z,4.03
2019-06-10T06:59:34.279Z,3.30
2019-06-10T07:02:03.191Z,3.27
2019-06-10T07:04:33.934Z,5.42
2019-06-10T07:07:02.799Z,4.33
2019-06-10T07:09:34.632Z,6.72
2019-06-10T07:12:04.362Z,4.72
2019-06-10T07:14:36.818Z,5.75
2019-06-10T07:17:04.091Z,3.95
2019-06-10T07:19:36.303Z,4.37
2019-06-10T07:22:11.715Z,7.40
2019-06-10T07:24:35.993Z,9.68
2019-06-10T07:27:04.681Z,5.47
2019-06-10T07:29:35.711Z,5.97
2019-06-10T07:32:03.982Z,3.83
2019-06-10T07:34:35.505Z,4.53
2019-06-10T07:37:03.559Z,6.80
2019-06-10T07:39:34.983Z,4.22
2019-06-10T07:42:03.185Z,5.00
2019-06-10T07:44:33.374Z,4.35
2019-06-10T07:47:02.742Z,3.72
2019-06-10T07:49:33.472Z,3.22
2019-06-10T07:52:14.942Z,4.40
2019-06-10T07:54:33.335Z,7.03
2019-06-10T07:57:03.294Z,4.92
2019-06-10T07:59:32.613Z,6.78
2019-06-10T08:02:03.037Z,10.40
2019-06-10T08:04:33.575Z,19.10
2019-06-10T08:07:03.352Z,9.88
2019-06-10T08:09:33.797Z,10.40
2019-06-10T08:12:05.795Z,10.08
2019-06-10T08:14:33.496Z,6.72
2019-06-10T08:17:03.131Z,7.80
2019-06-10T08:19:37.686Z,9.43
2019-06-10T08:22:03.134Z,7.37
2019-06-10T08:24:32.931Z,6.70
2019-06-10T08:27:02.866Z,8.18
2019-06-10T08:29:33.007Z,8.30
2019-06-10T08:32:03.271Z,4.80
2019-06-10T08:34:32.957Z,3.27
2019-06-10T08:37:04.286Z,4.08
2019-06-10T08:39:33.465Z,4.40
2019-06-10T08:42:03.174Z,4.03
2019-06-10T08:44:32.983Z,3.33
2019-06-10T08:47:03.069Z,3.85
2019-06-10T08:49:32.779Z,2.77
2019-06-10T08:52:02.840Z,4.67
2019-06-10T08:54:32.384Z,4.20
2019-06-10T08:57:04.387Z,3.37
2019-06-10T08:59:32.598Z,2.70
2019-06-10T09:02:02.900Z,4.22
2019-06-10T09:04:33.075Z,3.87
2019-06-10T09:07:04.215Z,4.12
2019-06-10T09:09:33.578Z,7.22
2019-06-10T09:12:03.630Z,3.10
2019-06-10T09:14:32.756Z,3.05
2019-06-10T09:17:03.397Z,5.80
2019-06-10T09:19:33.260Z,6.25
2019-06-10T09:22:03.940Z,6.67
2019-06-10T09:24:33.156Z,6.28
2019-06-10T09:27:03.434Z,6.35
2019-06-10T09:29:35.908Z,7.23
2019-06-10T09:32:06.521Z,6.03
2019-06-10T09:34:36.948Z,2.85
2019-06-10T09:37:05.895Z,5.15
2019-06-10T09:39:35.566Z,5.03
2019-06-10T09:42:06.597Z,4.50
2019-06-10T09:44:36.407Z,4.28
2019-06-10T09:47:07.534Z,4.75
2019-06-10T09:49:36.342Z,8.53
2019-06-10T09:52:05.203Z,7.50
2019-06-10T09:54:34.105Z,6.35
2019-06-10T09:57:03.402Z,7.60
2019-06-10T09:59:32.488Z,4.22
2019-06-10T10:02:05.562Z,3.83
2019-06-10T10:04:32.659Z,5.95
2019-06-10T10:07:04.223Z,4.65
2019-06-10T10:09:36.681Z,4.47
2019-06-10T10:12:03.595Z,7.25
2019-06-10T10:14:33.455Z,4.17
2019-06-10T10:17:04.811Z,5.15
2019-06-10T10:19:33.069Z,5.83
2019-06-10T10:22:02.971Z,5.45
2019-06-10T10:24:34.174Z,5.25
2019-06-10T10:27:08.354Z,6.85
2019-06-10T10:29:33.966Z,4.60
2019-06-10T10:32:02.863Z,9.60
2019-06-10T10:34:33.348Z,6.58
2019-06-10T10:37:02.952Z,8.95
2019-06-10T10:39:32.854Z,3.75
2019-06-10T10:42:03.358Z,4.60
2019-06-10T10:44:32.195Z,4.20
2019-06-10T10:47:03.503Z,5.47
2019-06-10T10:49:32.637Z,6.37
2019-06-10T10:52:02.664Z,6.00
2019-06-10T10:54:35.933Z,9.08
2019-06-10T10:57:03.500Z,11.35
2019-06-10T10:59:33.249Z,6.05
2019-06-10T11:02:02.858Z,15.93
2019-06-10T11:04:32.898Z,14.47
2019-06-10T11:07:01.888Z,10.68
2019-06-10T11:09:32.993Z,8.83
2019-06-10T11:12:02.914Z,11.95
2019-06-10T11:14:34.013Z,6.62
2019-06-10T11:17:02.981Z,4.75
2019-06-10T11:19:32.934Z,5.28
2019-06-10T11:22:05.469Z,5.15
2019-06-10T11:24:40.845Z,4.47
2019-06-10T11:27:05.522Z,4.67
2019-06-10T11:29:34.446Z,4.03
2019-06-10T11:32:03.293Z,4.55
2019-06-10T11:34:33.246Z,4.22
2019-06-10T11:37:02.474Z,6.12
2019-06-10T11:39:33.815Z,4.10
2019-06-10T11:42:03.868Z,4.60
2019-06-10T11:44:35.106Z,5.17
2019-06-10T11:47:05.511Z,3.10
2019-06-10T11:49:34.261Z,5.40
2019-06-10T11:52:03.368Z,5.33
2019-06-10T11:54:37.145Z,6.85
2019-06-10T11:57:04.407Z,5.77
2019-06-10T11:59:33.274Z,7.25
2019-06-10T12:02:05.843Z,5.45
2019-06-10T12:04:33.002Z,4.45
2019-06-10T12:07:02.361Z,7.12
2019-06-10T12:09:33.409Z,5.75
2019-06-10T12:12:02.415Z,6.60
2019-06-10T12:14:33.134Z,6.67
2019-06-10T12:17:40.174Z,5.53
2019-06-10T12:19:34.978Z,6.70
2019-06-10T12:22:07.435Z,5.62
2019-06-10T12:24:34.419Z,6.85
2019-06-10T12:27:05.031Z,6.85
2019-06-10T12:29:33.800Z,5.30
2019-06-10T12:32:06.878Z,4.20
2019-06-10T12:34:33.443Z,6.00
2019-06-10T12:37:10.848Z,3.80
2019-06-10T12:39:33.027Z,4.83
2019-06-10T12:42:06.172Z,6.35
2019-06-10T12:44:33.686Z,5.17
2019-06-10T12:47:07.880Z,4.60
2019-06-10T12:49:35.525Z,4.90
2019-06-10T12:52:07.390Z,5.20
2019-06-10T12:54:35.323Z,7.62
2019-06-10T12:57:06.364Z,6.92
2019-06-10T12:59:34.602Z,7.40
2019-06-10T13:02:15.625Z,6.80
2019-06-10T13:04:34.226Z,6.60
2019-06-10T13:07:05.706Z,13.68
2019-06-10T13:09:33.526Z,14.33
2019-06-10T13:12:02.358Z,13.32
2019-06-10T13:14:32.541Z,10.65
2019-06-10T13:17:02.996Z,9.60
2019-06-10T13:19:34.351Z,10.03
2019-06-10T13:22:05.720Z,9.43
2019-06-10T13:24:33.878Z,9.25
2019-06-10T13:27:06.533Z,7.95
2019-06-10T13:29:35.328Z,9.00
2019-06-10T13:32:06.632Z,4.70
2019-06-10T13:34:37.158Z,8.98
2019-06-10T13:37:08.159Z,9.43
2019-06-10T13:39:36.431Z,8.78
2019-06-10T13:42:08.131Z,7.80
2019-06-10T13:44:35.706Z,7.33
2019-06-10T13:47:08.099Z,6.03
2019-06-10T13:49:35.051Z,6.55
2019-06-10T13:52:09.115Z,5.95
2019-06-10T13:54:36.213Z,8.05
2019-06-10T13:57:07.001Z,4.92
2019-06-10T13:59:36.246Z,6.42
2019-06-10T14:02:08.129Z,7.83
2019-06-10T14:04:35.769Z,9.17
2019-06-10T14:07:08.677Z,7.20
2019-06-10T14:09:35.241Z,9.60
2019-06-10T14:12:04.156Z,7.72
2019-06-10T14:14:33.361Z,6.25
2019-06-10T14:17:03.858Z,6.37
2019-06-10T14:19:33.074Z,6.40
2019-06-10T14:22:05.809Z,5.12
2019-06-10T14:24:34.167Z,8.75
2019-06-10T14:27:05.223Z,6.15
2019-06-10T14:29:35.162Z,5.20
2019-06-10T14:32:04.434Z,10.72
2019-06-10T14:34:34.518Z,7.72
2019-06-10T14:37:03.775Z,5.03
2019-06-10T14:39:32.997Z,7.47
2019-06-10T14:42:04.873Z,7.05
2019-06-10T14:44:32.627Z,6.37
2019-06-10T14:47:02.934Z,5.37
2019-06-10T14:49:33.017Z,8.18
2019-06-10T14:52:04.980Z,7.58
2019-06-10T14:54:34.239Z,8.45
2019-06-10T14:57:02.969Z,5.17
2019-06-10T14:59:31.778Z,4.03
2019-06-10T15:02:02.638Z,6.35
2019-06-10T15:04:33.135Z,11.15
2019-06-10T15:07:02.879Z,5.45
2019-06-10T15:09:33.449Z,7.22
2019-06-10T15:12:02.935Z,7.85
2019-06-10T15:14:32.448Z,5.65
2019-06-10T15:17:02.798Z,10.23
2019-06-10T15:19:33.265Z,9.23
2019-06-10T15:22:03.025Z,5.47
2019-06-10T15:24:33.475Z,8.28
2019-06-10T15:27:10.245Z,8.90
2019-06-10T15:29:33.033Z,7.60
2019-06-10T15:32:13.587Z,3.85
2019-06-10T15:34:32.614Z,6.40
2019-06-10T15:37:02.833Z,8.63
2019-06-10T15:39:33.302Z,4.75
2019-06-10T15:42:03.016Z,7.10
2019-06-10T15:44:52.575Z,4.42
2019-06-10T15:47:03.123Z,8.28
2019-06-10T15:49:32.704Z,9.53
2019-06-10T15:52:03.962Z,7.60
2019-06-10T15:54:33.381Z,6.47
2019-06-10T15:57:03.384Z,4.67
2019-06-10T15:59:32.329Z,4.62
2019-06-10T16:02:02.543Z,8.03
2019-06-10T16:04:35.026Z,8.95
2019-06-10T16:07:02.904Z,14.30
2019-06-10T16:09:32.196Z,18.17
2019-06-10T16:12:03.004Z,22.02
2019-06-10T16:14:33.213Z,19.90
2019-06-10T16:17:03.126Z,18.30
2019-06-10T16:19:32.859Z,17.82
2019-06-10T16:22:04.266Z,15.13
2019-06-10T16:24:33.360Z,14.18
2019-06-10T16:27:03.306Z,12.33
2019-06-10T16:29:33.330Z,11.68
2019-06-10T16:32:02.665Z,10.72
2019-06-10T16:34:32.587Z,8.95
2019-06-10T16:37:02.346Z,9.63
2019-06-10T16:39:32.576Z,10.58
2019-06-10T16:42:02.979Z,7.62
2019-06-10T16:44:32.936Z,11.93
2019-06-10T16:47:03.267Z,8.05
2019-06-10T16:49:32.914Z,8.50
2019-06-10T16:52:02.908Z,13.05
2019-06-10T16:54:33.036Z,14.93
2019-06-10T16:57:03.809Z,8.15
2019-06-10T16:59:32.994Z,10.30
2019-06-10T17:02:02.360Z,9.83
2019-06-10T17:04:33.174Z,9.73
2019-06-10T17:07:02.267Z,5.77
2019-06-10T17:09:32.880Z,9.28
2019-06-10T17:12:02.286Z,10.75
2019-06-10T17:14:33.547Z,10.40
2019-06-10T17:17:03.641Z,15.15
2019-06-10T17:19:33.314Z,7.30
2019-06-10T17:22:02.677Z,9.45
2019-06-10T17:24:33.756Z,10.03
2019-06-10T17:27:02.697Z,9.73
2019-06-10T17:29:33.521Z,14.28
2019-06-10T17:32:02.762Z,8.83
2019-06-10T17:34:33.916Z,9.38
2019-06-10T17:37:04.925Z,9.98
2019-06-10T17:39:34.773Z,9.60
2019-06-10T17:42:06.409Z,9.83
2019-06-10T17:47:03.409Z,9.43
2019-06-10T17:49:34.370Z,9.48
2019-06-10T17:52:24.168Z,9.63
2019-06-10T17:54:53.421Z,13.28
2019-06-10T17:57:23.509Z,11.38
2019-06-10T17:59:52.716Z,11.25
2019-06-10T18:02:23.061Z,10.93
2019-06-10T18:04:52.600Z,13.83
2019-06-10T18:07:22.715Z,9.70
2019-06-10T18:09:52.979Z,11.73
2019-06-10T18:12:22.330Z,11.08
2019-06-10T18:14:52.477Z,8.95
2019-06-10T18:17:23.427Z,8.85
2019-06-10T18:19:53.251Z,12.53
2019-06-10T18:22:22.971Z,10.53
2019-06-10T18:24:52.301Z,8.40
2019-06-10T18:27:22.730Z,11.28
2019-06-10T18:29:51.559Z,9.93
2019-06-10T18:32:22.741Z,9.63
2019-06-10T18:34:52.077Z,19.57
2019-06-10T18:37:22.795Z,14.07
2019-06-10T18:39:52.250Z,12.20
2019-06-10T18:42:23.555Z,11.53
2019-06-10T18:44:52.234Z,11.88
2019-06-10T18:47:22.414Z,7.00
2019-06-10T18:49:52.718Z,17.48
2019-06-10T18:52:23.305Z,7.65
2019-06-10T18:54:52.863Z,9.60
2019-06-10T18:57:22.474Z,12.20
2019-06-10T18:59:52.223Z,11.55
2019-06-10T19:02:22.628Z,12.40
2019-06-10T19:04:54.424Z,10.18
2019-06-10T19:07:22.783Z,7.60
2019-06-10T19:09:52.870Z,8.68
2019-06-10T19:12:22.458Z,9.63
2019-06-10T19:14:52.272Z,8.70
2019-06-10T19:17:23.158Z,7.87
2019-06-10T19:19:54.742Z,11.53
2019-06-10T19:22:23.792Z,8.83
2019-06-10T19:27:45.272Z,11.00
2019-06-10T19:30:15.041Z,8.30
2019-06-10T19:32:44.422Z,10.78
2019-06-10T19:35:13.392Z,8.63
2019-06-10T19:37:42.395Z,9.70
2019-06-10T19:40:12.391Z,12.20
2019-06-10T19:42:44.530Z,9.48
2019-06-10T19:45:12.873Z,10.72
2019-06-10T19:47:45.530Z,10.75
2019-06-10T19:50:12.414Z,10.32
2019-06-10T19:52:45.281Z,10.32
2019-06-10T19:57:43.694Z,12.25
2019-06-10T20:00:13.015Z,12.65
2019-06-10T20:02:44.561Z,9.33
2019-06-10T20:05:14.715Z,10.88
2019-06-10T20:07:48.481Z,10.15
2019-06-10T20:10:14.115Z,11.08
2019-06-10T20:12:44.822Z,8.50
2019-06-10T20:15:22.583Z,11.00
2019-06-10T20:17:52.520Z,8.13
2019-06-10T20:20:22.605Z,11.95
2019-06-10T20:22:53.333Z,10.72
2019-06-10T20:25:22.915Z,11.57
2019-06-10T20:27:52.408Z,10.55
2019-06-10T20:30:28.023Z,11.18
2019-06-10T20:32:55.689Z,8.73
2019-06-10T20:35:23.197Z,11.40
2019-06-10T20:37:53.920Z,8.18
2019-06-10T20:40:23.205Z,8.60
2019-06-10T20:42:51.987Z,8.70
2019-06-10T20:45:22.922Z,8.58
2019-06-10T20:47:53.357Z,8.28
2019-06-10T20:50:21.969Z,9.38
2019-06-10T20:52:52.454Z,7.20
2019-06-10T20:55:24.819Z,9.67
2019-06-10T20:58:03.040Z,7.97
2019-06-10T21:00:34.044Z,6.95
2019-06-10T21:03:03.439Z,8.15
2019-06-10T21:05:32.522Z,7.33
2019-06-10T21:08:03.015Z,6.85
2019-06-10T21:10:36.413Z,6.90
2019-06-10T21:13:05.881Z,8.18
2019-06-10T21:15:34.979Z,6.22
2019-06-10T21:18:03.798Z,8.95
2019-06-10T21:20:33.170Z,8.55
2019-06-10T21:23:03.037Z,6.35
2019-06-10T21:25:32.663Z,7.70
2019-06-10T21:28:03.097Z,6.17
2019-06-10T21:30:41.398Z,11.25
2019-06-10T21:33:03.626Z,5.55
2019-06-10T21:35:33.938Z,5.62
2019-06-10T21:38:02.730Z,5.67
2019-06-10T21:40:33.046Z,5.55
2019-06-10T21:43:02.804Z,7.67
2019-06-10T21:45:32.555Z,5.70
2019-06-10T21:48:02.286Z,5.72
2019-06-10T21:50:33.346Z,6.33
2019-06-10T21:53:03.326Z,4.85
2019-06-10T21:55:33.063Z,6.75
2019-06-10T21:58:03.806Z,3.85
2019-06-10T22:00:55.303Z,9.05
2019-06-10T22:03:18.019Z,6.72
2019-06-10T22:05:47.521Z,6.72
2019-06-10T22:08:16.317Z,5.87
2019-06-10T22:10:45.932Z,6.90
2019-06-10T22:13:14.857Z,4.33
2019-06-10T22:15:44.272Z,4.28
2019-06-10T22:18:13.213Z,3.90
2019-06-10T22:20:43.012Z,5.08
2019-06-10T22:23:13.576Z,5.45
2019-06-10T22:25:42.434Z,5.47
2019-06-10T22:28:13.117Z,5.65
2019-06-10T22:30:43.309Z,3.90
2019-06-10T22:33:12.563Z,3.87
2019-06-10T22:35:42.483Z,4.40
2019-06-10T22:38:13.020Z,5.30
2019-06-10T22:40:42.700Z,3.58
2019-06-10T22:43:12.921Z,3.27
2019-06-10T22:45:42.346Z,4.08
2019-06-10T22:48:13.042Z,4.47
2019-06-10T22:50:43.690Z,4.45
2019-06-10T22:53:12.706Z,4.22
2019-06-10T22:55:43.244Z,5.95
2019-06-10T22:58:14.505Z,2.95
2019-06-10T23:00:43.711Z,5.50
2019-06-10T23:03:13.293Z,3.50
2019-06-10T23:05:43.317Z,3.92
2019-06-10T23:08:12.786Z,4.17
2019-06-10T23:10:42.987Z,3.33
2019-06-10T23:13:13.383Z,4.05
2019-06-10T23:15:42.991Z,2.98
2019-06-10T23:18:12.771Z,4.22
2019-06-10T23:20:42.720Z,4.95
2019-06-10T23:23:12.702Z,3.92
2019-06-10T23:25:42.978Z,3.87
2019-06-10T23:28:12.971Z,4.58
2019-06-10T23:30:43.313Z,4.92
2019-06-10T23:33:12.550Z,2.80
2019-06-10T23:35:43.035Z,3.40
2019-06-10T23:38:13.137Z,4.75
2019-06-10T23:40:43.050Z,4.45
2019-06-10T23:43:13.288Z,3.30
2019-06-10T23:45:42.453Z,3.72
2019-06-10T23:48:13.497Z,4.28
2019-06-10T23:50:43.700Z,4.80
2019-06-10T23:53:13.275Z,3.85
2019-06-10T23:55:42.744Z,4.53
2019-06-10T23:58:12.939Z,3.15
